Time;durP1;ratioP1;P1;durP2;ratioP2;P2;SDS_P1;SDS_P2;PMS_P1;PMS_P2;Temp;Humidity;BMP_temperature;BMP_pressure;BME280_temperature;BME280_humidity;BME280_pressure;Samples;Min_cycle;Max_cycle;Signal;HPM_P1;HPM_P2
2023/09/13 00:01:51;;;;;;;0.20;0.20;;;;;;;;;;5073567;28;20056;-73
2023/09/13 00:04:16;;;;;;;0.20;0.20;;;;;;;;;;5075519;28;20063;-72
2023/09/13 00:06:42;;;;;;;0.10;0.10;;;;;;;;;;5074336;28;20560;-72
2023/09/13 00:09:08;;;;;;;0.15;0.15;;;;;;;;;;5075755;28;20040;-72
2023/09/13 00:11:35;;;;;;;0.10;0.10;;;;;;;;;;5075562;28;20078;-73
2023/09/13 00:14:00;;;;;;;0.10;0.10;;;;;;;;;;5075457;28;20043;-73
2023/09/13 00:16:26;;;;;;;0.13;0.13;;;;;;;;;;5075403;28;20040;-72
2023/09/13 00:18:52;;;;;;;0.20;0.20;;;;;;;;;;5075410;28;20111;-72
2023/09/13 00:21:18;;;;;;;0.20;0.20;;;;;;;;;;5074147;28;20518;-72
2023/09/13 00:23:46;;;;;;;0.20;0.20;;;;;;;;;;5075297;28;20033;-73
2023/09/13 00:26:11;;;;;;;0.10;0.10;;;;;;;;;;5075619;28;20040;-72
2023/09/13 00:28:38;;;;;;;0.10;0.10;;;;;;;;;;5057156;28;20036;-71
2023/09/13 00:31:03;;;;;;;0.10;0.10;;;;;;;;;;5075191;28;20028;-72
2023/09/13 00:33:29;;;;;;;0.15;0.15;;;;;;;;;;5056648;28;20062;-72
2023/09/13 00:35:56;;;;;;;0.10;0.10;;;;;;;;;;5055551;28;20044;-72
2023/09/13 00:38:23;;;;;;;0.20;0.20;;;;;;;;;;5075316;28;20040;-72
2023/09/13 00:40:48;;;;;;;0.20;0.20;;;;;;;;;;5057254;28;20094;-72
2023/09/13 00:43:14;;;;;;;0.10;0.10;;;;;;;;;;5057065;28;20143;-71
2023/09/13 00:45:40;;;;;;;0.10;0.10;;;;;;;;;;5074134;28;20028;-72
2023/09/13 00:48:06;;;;;;;0.10;0.10;;;;;;;;;;5057101;28;20488;-72
2023/09/13 00:50:32;;;;;;;0.10;0.10;;;;;;;;;;5074978;28;20490;-72
2023/09/13 00:52:58;;;;;;;0.20;0.20;;;;;;;;;;5075408;28;20115;-72
2023/09/13 00:55:25;;;;;;;0.10;0.10;;;;;;;;;;5078356;28;20410;-73
2023/09/13 00:57:50;;;;;;;0.15;0.15;;;;;;;;;;5076469;28;20040;-72
2023/09/13 01:00:16;;;;;;;0.10;0.10;;;;;;;;;;5074726;28;20033;-72
2023/09/13 01:02:42;;;;;;;0.10;0.10;;;;;;;;;;5057155;28;20514;-72
2023/09/13 01:05:08;;;;;;;0.10;0.10;;;;;;;;;;5075078;28;20036;-73
2023/09/13 01:07:34;;;;;;;0.10;0.10;;;;;;;;;;5073083;28;20040;-72
2023/09/13 01:09:59;;;;;;;0.10;0.10;;;;;;;;;;5074421;28;20032;-73
2023/09/13 01:12:25;;;;;;;0.20;0.20;;;;;;;;;;5074734;28;20035;-73
2023/09/13 01:14:51;;;;;;;0.10;0.10;;;;;;;;;;5040307;28;20032;-73
2023/09/13 01:17:19;;;;;;;0.10;0.10;;;;;;;;;;5074805;28;20029;-73
2023/09/13 01:20:11;;;;;;;0.30;0.30;;;;;;;;;;5074691;28;20075;-73
2023/09/13 01:23:05;;;;;;;0.10;0.10;;;;;;;;;;5035997;28;20107;-73
2023/09/13 01:25:45;;;;;;;0.20;0.20;;;;;;;;;;5053178;28;20571;-73
2023/09/13 01:28:30;;;;;;;0.10;0.10;;;;;;;;;;5056751;28;20029;-73
2023/09/13 01:30:56;;;;;;;0.20;0.20;;;;;;;;;;5056336;28;20047;-72
2023/09/13 01:33:22;;;;;;;0.20;0.20;;;;;;;;;;5074418;28;20044;-73
2023/09/13 01:35:48;;;;;;;0.10;0.10;;;;;;;;;;5056476;28;20480;-73
2023/09/13 01:38:13;;;;;;;0.10;0.10;;;;;;;;;;5072329;28;20033;-73
2023/09/13 01:40:39;;;;;;;0.10;0.10;;;;;;;;;;5073491;28;20070;-73
2023/09/13 01:43:06;;;;;;;0.10;0.10;;;;;;;;;;5073755;28;20036;-73
2023/09/13 01:45:35;;;;;;;0.10;0.10;;;;;;;;;;5073300;28;20082;-73
2023/09/13 01:48:02;;;;;;;0.10;0.10;;;;;;;;;;5056178;28;20044;-73
2023/09/13 01:50:28;;;;;;;0.15;0.15;;;;;;;;;;5074052;28;20016;-73
2023/09/13 01:52:54;;;;;;;0.10;0.10;;;;;;;;;;5074167;28;20049;-72
2023/09/13 01:55:19;;;;;;;0.10;0.10;;;;;;;;;;5056007;28;20033;-72
2023/09/13 01:57:45;;;;;;;0.10;0.10;;;;;;;;;;5073052;28;20078;-72
2023/09/13 02:00:11;;;;;;;0.10;0.10;;;;;;;;;;5073930;28;20047;-72
2023/09/13 02:02:40;;;;;;;0.20;0.20;;;;;;;;;;5055678;28;20070;-73
2023/09/13 02:05:06;;;;;;;0.13;0.13;;;;;;;;;;5073077;28;20064;-73
2023/09/13 02:07:32;;;;;;;0.10;0.10;;;;;;;;;;5054695;28;20556;-73
2023/09/13 02:09:58;;;;;;;0.13;0.13;;;;;;;;;;5055336;28;20427;-72
2023/09/13 02:12:23;;;;;;;0.10;0.10;;;;;;;;;;5072872;28;20044;-73
2023/09/13 02:14:49;;;;;;;0.10;0.10;;;;;;;;;;5055341;28;20040;-73
2023/09/13 02:17:14;;;;;;;0.10;0.10;;;;;;;;;;5071270;28;20040;-73
2023/09/13 02:19:40;;;;;;;0.10;0.10;;;;;;;;;;5071890;28;20029;-73
2023/09/13 02:22:06;;;;;;;0.20;0.20;;;;;;;;;;5073522;28;20037;-72
2023/09/13 02:24:32;;;;;;;0.10;0.10;;;;;;;;;;5072208;28;20024;-72
2023/09/13 02:26:58;;;;;;;0.20;0.20;;;;;;;;;;5055760;28;20032;-72
2023/09/13 02:29:25;;;;;;;0.13;0.13;;;;;;;;;;5072129;28;20025;-71
2023/09/13 02:31:51;;;;;;;1.08;0.90;;;;;;;;;;5055514;28;20043;-73
2023/09/13 02:34:18;;;;;;;0.10;0.10;;;;;;;;;;5051905;28;20036;-72
2023/09/13 02:36:45;;;;;;;0.13;0.13;;;;;;;;;;5068069;28;20040;-72
2023/09/13 02:39:34;;;;;;;0.60;0.60;;;;;;;;;;5073097;28;20380;-72
2023/09/13 02:42:00;;;;;;;0.10;0.10;;;;;;;;;;5073620;28;20037;-73
2023/09/13 02:44:26;;;;;;;0.10;0.10;;;;;;;;;;5055380;28;20085;-72
2023/09/13 02:46:51;;;;;;;0.10;0.10;;;;;;;;;;5054702;28;20040;-73
2023/09/13 02:49:17;;;;;;;0.20;0.20;;;;;;;;;;5055552;28;20074;-72
2023/09/13 02:51:42;;;;;;;0.20;0.20;;;;;;;;;;5056475;28;20396;-72
2023/09/13 02:54:08;;;;;;;0.10;0.10;;;;;;;;;;5073468;28;20036;-73
2023/09/13 02:56:34;;;;;;;0.10;0.10;;;;;;;;;;5053028;28;20036;-72
2023/09/13 02:59:00;;;;;;;0.13;0.13;;;;;;;;;;5055022;28;20039;-72
2023/09/13 03:01:26;;;;;;;0.10;0.10;;;;;;;;;;5055439;28;20475;-72
2023/09/13 03:03:52;;;;;;;0.10;0.10;;;;;;;;;;5049494;28;20040;-73
2023/09/13 03:06:18;;;;;;;0.20;0.20;;;;;;;;;;5068173;28;20067;-73
2023/09/13 03:08:44;;;;;;;0.10;0.10;;;;;;;;;;5051081;28;20032;-73
2023/09/13 03:11:11;;;;;;;0.10;0.10;;;;;;;;;;5068987;28;20039;-73
2023/09/13 03:13:38;;;;;;;0.20;0.20;;;;;;;;;;5051021;28;20033;-73
2023/09/13 03:16:10;;;;;;;0.10;0.10;;;;;;;;;;5049868;28;20154;-74
2023/09/13 03:18:36;;;;;;;0.20;0.20;;;;;;;;;;5051022;28;20038;-73
2023/09/13 03:21:05;;;;;;;0.52;0.40;;;;;;;;;;5033655;28;20043;-74
2023/09/13 03:23:31;;;;;;;0.20;0.20;;;;;;;;;;5050658;28;20039;-73
2023/09/13 03:25:57;;;;;;;0.50;0.50;;;;;;;;;;5050882;28;20032;-72
2023/09/13 03:28:22;;;;;;;0.95;0.95;;;;;;;;;;5050647;28;20123;-72
2023/09/13 03:30:48;;;;;;;0.10;0.10;;;;;;;;;;5050165;28;20037;-72
2023/09/13 03:33:13;;;;;;;0.20;0.20;;;;;;;;;;5051075;28;20099;-72
2023/09/13 03:35:39;;;;;;;0.10;0.10;;;;;;;;;;5047116;28;20476;-72
2023/09/13 03:38:05;;;;;;;0.13;0.13;;;;;;;;;;5050304;28;20120;-71
2023/09/13 03:40:30;;;;;;;0.15;0.15;;;;;;;;;;5050645;28;20064;-71
2023/09/13 03:42:56;;;;;;;0.10;0.10;;;;;;;;;;5050516;28;20097;-72
2023/09/13 03:45:22;;;;;;;0.10;0.10;;;;;;;;;;5033389;28;20489;-72
2023/09/13 03:47:47;;;;;;;0.10;0.10;;;;;;;;;;5068296;28;20085;-72
2023/09/13 03:50:13;;;;;;;0.20;0.20;;;;;;;;;;5050216;28;20036;-73
2023/09/13 03:52:38;;;;;;;0.10;0.10;;;;;;;;;;5066689;28;20040;-73
2023/09/13 03:55:05;;;;;;;0.10;0.10;;;;;;;;;;5049962;28;20517;-72
2023/09/13 03:57:31;;;;;;;0.10;0.10;;;;;;;;;;5049473;28;20028;-73
2023/09/13 03:59:57;;;;;;;0.20;0.20;;;;;;;;;;5048421;28;20044;-73
2023/09/13 04:02:22;;;;;;;0.20;0.20;;;;;;;;;;5049644;28;20036;-73
2023/09/13 04:04:48;;;;;;;0.10;0.10;;;;;;;;;;5067886;28;20159;-72
2023/09/13 04:07:14;;;;;;;0.20;0.20;;;;;;;;;;5066641;28;20480;-73
2023/09/13 04:09:39;;;;;;;0.15;0.15;;;;;;;;;;5050131;28;20071;-73
2023/09/13 04:12:05;;;;;;;10.60;8.60;;;;;;;;;;5068095;28;20032;-73
2023/09/13 04:14:30;;;;;;;0.10;0.10;;;;;;;;;;5068291;28;20036;-73
2023/09/13 04:16:56;;;;;;;0.10;0.10;;;;;;;;;;5068051;28;20028;-73
2023/09/13 04:19:22;;;;;;;0.20;0.20;;;;;;;;;;5033250;28;20029;-73
2023/09/13 04:21:47;;;;;;;0.10;0.10;;;;;;;;;;5049085;28;20032;-73
2023/09/13 04:24:13;;;;;;;0.13;0.13;;;;;;;;;;5067865;28;20044;-73
2023/09/13 04:26:39;;;;;;;0.10;0.10;;;;;;;;;;5067618;28;20032;-73
2023/09/13 04:29:05;;;;;;;0.10;0.10;;;;;;;;;;5049688;28;20036;-73
2023/09/13 04:31:31;;;;;;;0.10;0.10;;;;;;;;;;5066329;28;20078;-73
2023/09/13 04:33:56;;;;;;;0.10;0.10;;;;;;;;;;5066664;28;20039;-73
2023/09/13 04:36:30;;;;;;;0.13;0.13;;;;;;;;;;5050056;28;20074;-72
2023/09/13 04:38:57;;;;;;;0.10;0.10;;;;;;;;;;5049895;28;20040;-73
2023/09/13 04:41:23;;;;;;;0.17;0.17;;;;;;;;;;5050099;28;20082;-73
2023/09/13 04:43:49;;;;;;;0.10;0.10;;;;;;;;;;5051287;28;20048;-73
2023/09/13 04:46:17;;;;;;;0.45;0.40;;;;;;;;;;5070720;28;20029;-73
2023/09/13 04:48:43;;;;;;;0.10;0.10;;;;;;;;;;5054309;28;20025;-72
2023/09/13 04:51:12;;;;;;;0.10;0.10;;;;;;;;;;5053157;28;20496;-72
2023/09/13 04:53:39;;;;;;;0.10;0.10;;;;;;;;;;5053631;28;20388;-73
2023/09/13 04:56:05;;;;;;;0.10;0.10;;;;;;;;;;5053040;28;20037;-71
2023/09/13 04:58:37;;;;;;;0.10;0.10;;;;;;;;;;5052877;28;20490;-71
2023/09/13 05:01:03;;;;;;;0.10;0.10;;;;;;;;;;5051543;28;20105;-72
2023/09/13 05:03:29;;;;;;;0.10;0.10;;;;;;;;;;5036304;28;20028;-73
2023/09/13 05:05:55;;;;;;;0.10;0.10;;;;;;;;;;5068031;28;20082;-72
2023/09/13 05:08:21;;;;;;;0.20;0.20;;;;;;;;;;5063655;28;20426;-72
2023/09/13 05:10:47;;;;;;;0.10;0.10;;;;;;;;;;5067875;28;20499;-73
2023/09/13 05:13:13;;;;;;;0.17;0.17;;;;;;;;;;5069377;28;20029;-70
2023/09/13 05:15:42;;;;;;;0.13;0.13;;;;;;;;;;5041412;28;20040;-72
2023/09/13 05:18:08;;;;;;;0.10;0.10;;;;;;;;;;5050421;28;20040;-72
2023/09/13 05:20:33;;;;;;;0.13;0.13;;;;;;;;;;5048095;28;20021;-73
2023/09/13 05:22:58;;;;;;;0.10;0.10;;;;;;;;;;5063835;28;20537;-71
2023/09/13 05:25:24;;;;;;;0.10;0.10;;;;;;;;;;5052906;28;20068;-74
2023/09/13 05:27:50;;;;;;;0.10;0.10;;;;;;;;;;5050545;28;20127;-73
2023/09/13 05:30:15;;;;;;;0.10;0.10;;;;;;;;;;5049378;28;20083;-73
2023/09/13 05:32:41;;;;;;;0.10;0.10;;;;;;;;;;5050545;28;20724;-73
2023/09/13 05:35:07;;;;;;;0.10;0.10;;;;;;;;;;5069514;28;20090;-73
2023/09/13 05:37:33;;;;;;;0.10;0.10;;;;;;;;;;5069187;28;20403;-72
2023/09/13 05:39:59;;;;;;;0.20;0.20;;;;;;;;;;5051600;28;20025;-73
2023/09/13 05:42:24;;;;;;;0.30;0.30;;;;;;;;;;5067093;28;20076;-72
2023/09/13 05:44:50;;;;;;;0.10;0.10;;;;;;;;;;5063430;28;20094;-73
2023/09/13 05:47:15;;;;;;;0.10;0.10;;;;;;;;;;5050366;28;20041;-72
2023/09/13 05:49:41;;;;;;;0.20;0.20;;;;;;;;;;5040382;28;20021;-73
2023/09/13 05:52:07;;;;;;;0.20;0.20;;;;;;;;;;5069901;28;20025;-73
2023/09/13 05:54:33;;;;;;;0.10;0.10;;;;;;;;;;5068822;28;20033;-73
2023/09/13 05:57:00;;;;;;;0.10;0.10;;;;;;;;;;5068085;28;20032;-73
2023/09/13 05:59:25;;;;;;;0.10;0.10;;;;;;;;;;5069019;28;20044;-73
2023/09/13 06:01:51;;;;;;;0.20;0.20;;;;;;;;;;5059513;28;20032;-71
2023/09/13 06:04:17;;;;;;;0.20;0.20;;;;;;;;;;5059581;28;20029;-73
2023/09/13 06:06:43;;;;;;;0.20;0.20;;;;;;;;;;5052026;28;20044;-73
2023/09/13 06:09:09;;;;;;;0.20;0.20;;;;;;;;;;5069223;28;20039;-73
2023/09/13 06:11:34;;;;;;;0.10;0.10;;;;;;;;;;5067077;28;20028;-73
2023/09/13 06:14:04;;;;;;;0.10;0.10;;;;;;;;;;5069117;28;20173;-73
2023/09/13 06:16:30;;;;;;;0.10;0.10;;;;;;;;;;5067311;28;20029;-73
2023/09/13 06:18:56;;;;;;;0.10;0.10;;;;;;;;;;5067673;28;20039;-72
2023/09/13 06:21:22;;;;;;;0.20;0.20;;;;;;;;;;5035595;28;20506;-72
2023/09/13 06:23:49;;;;;;;0.77;0.77;;;;;;;;;;5068246;28;20033;-72
2023/09/13 06:26:15;;;;;;;0.10;0.10;;;;;;;;;;5067343;28;20480;-72
2023/09/13 06:28:40;;;;;;;0.20;0.20;;;;;;;;;;5068931;28;20029;-72
2023/09/13 06:31:07;;;;;;;0.10;0.10;;;;;;;;;;5067547;28;20036;-72
2023/09/13 06:33:32;;;;;;;0.20;0.20;;;;;;;;;;5065653;28;20111;-72
2023/09/13 06:35:58;;;;;;;0.20;0.20;;;;;;;;;;5057844;28;20045;-72
2023/09/13 06:38:24;;;;;;;0.20;0.20;;;;;;;;;;5052987;28;20024;-73
2023/09/13 06:40:51;;;;;;;0.20;0.20;;;;;;;;;;5067486;28;20086;-73
2023/09/13 06:43:18;;;;;;;0.10;0.10;;;;;;;;;;5066560;28;20036;-73
2023/09/13 06:45:44;;;;;;;1.25;1.25;;;;;;;;;;5049227;28;20047;-73
2023/09/13 06:48:10;;;;;;;6.95;6.40;;;;;;;;;;5067370;28;20041;-73
2023/09/13 06:50:36;;;;;;;0.20;0.20;;;;;;;;;;5066407;28;20036;-73
2023/09/13 06:53:02;;;;;;;4.10;2.55;;;;;;;;;;5068780;28;20563;-72
2023/09/13 06:55:28;;;;;;;1.33;1.25;;;;;;;;;;5068793;28;20522;-73
2023/09/13 06:57:54;;;;;;;0.30;0.30;;;;;;;;;;5068415;28;20037;-72
2023/09/13 07:00:20;;;;;;;1.02;1.02;;;;;;;;;;5066519;28;20027;-72
2023/09/13 07:02:46;;;;;;;0.30;0.30;;;;;;;;;;5040548;28;20966;-73
2023/09/13 07:05:12;;;;;;;0.20;0.20;;;;;;;;;;5066920;28;20064;-72
2023/09/13 07:07:37;;;;;;;0.40;0.40;;;;;;;;;;5068864;28;20037;-74
2023/09/13 07:10:03;;;;;;;0.10;0.10;;;;;;;;;;5067899;28;20035;-72
2023/09/13 07:12:29;;;;;;;0.20;0.20;;;;;;;;;;5064826;28;20495;-72
2023/09/13 07:14:55;;;;;;;0.20;0.20;;;;;;;;;;5068155;28;20032;-73
2023/09/13 07:17:20;;;;;;;1.10;1.00;;;;;;;;;;5068057;28;20039;-73
2023/09/13 07:19:46;;;;;;;0.20;0.20;;;;;;;;;;5068735;28;20032;-72
2023/09/13 07:22:12;;;;;;;0.20;0.20;;;;;;;;;;5068160;28;20028;-73
2023/09/13 07:24:37;;;;;;;0.10;0.10;;;;;;;;;;5068593;28;20034;-72
2023/09/13 07:27:04;;;;;;;0.20;0.20;;;;;;;;;;5068160;28;20032;-72
2023/09/13 07:29:29;;;;;;;0.20;0.20;;;;;;;;;;5068203;28;20041;-73
2023/09/13 07:31:55;;;;;;;0.20;0.20;;;;;;;;;;5067858;28;20024;-73
2023/09/13 07:34:21;;;;;;;0.20;0.20;;;;;;;;;;5067980;28;20036;-72
2023/09/13 07:36:47;;;;;;;0.20;0.20;;;;;;;;;;5067557;28;20132;-73
2023/09/13 07:39:12;;;;;;;0.20;0.20;;;;;;;;;;5061242;28;20028;-73
2023/09/13 07:41:38;;;;;;;1.38;1.27;;;;;;;;;;5067370;28;20387;-72
2023/09/13 07:44:04;;;;;;;0.20;0.20;;;;;;;;;;5065347;28;20472;-73
2023/09/13 07:46:30;;;;;;;0.20;0.20;;;;;;;;;;5048923;28;20032;-72
2023/09/13 07:48:56;;;;;;;0.20;0.20;;;;;;;;;;5064601;28;20043;-72
2023/09/13 07:51:22;;;;;;;0.30;0.30;;;;;;;;;;5046304;28;20024;-73
2023/09/13 07:53:47;;;;;;;0.63;0.63;;;;;;;;;;5059514;28;20036;-73
2023/09/13 07:56:17;;;;;;;0.20;0.20;;;;;;;;;;5066635;28;20032;-73
2023/09/13 07:58:43;;;;;;;0.20;0.20;;;;;;;;;;5064557;28;20814;-72
2023/09/13 08:01:09;;;;;;;2.60;1.23;;;;;;;;;;5067616;28;20046;-72
2023/09/13 08:03:35;;;;;;;0.20;0.20;;;;;;;;;;5065404;28;20040;-73
2023/09/13 08:06:03;;;;;;;0.20;0.20;;;;;;;;;;5049539;28;20060;-72
2023/09/13 08:08:30;;;;;;;0.20;0.20;;;;;;;;;;5065037;28;20071;-73
2023/09/13 08:10:56;;;;;;;0.30;0.30;;;;;;;;;;5049731;28;20032;-72
2023/09/13 08:13:22;;;;;;;0.30;0.30;;;;;;;;;;5066658;28;20095;-72
2023/09/13 08:15:49;;;;;;;0.60;0.60;;;;;;;;;;5067203;28;20067;-72
2023/09/13 08:18:14;;;;;;;0.20;0.20;;;;;;;;;;5060580;28;20483;-72
2023/09/13 08:20:40;;;;;;;0.20;0.20;;;;;;;;;;5059994;28;20043;-73
2023/09/13 08:23:06;;;;;;;0.20;0.20;;;;;;;;;;5051222;28;20036;-73
2023/09/13 08:25:31;;;;;;;3.70;1.95;;;;;;;;;;5053190;28;20527;-72
2023/09/13 08:27:57;;;;;;;0.65;0.30;;;;;;;;;;5070852;28;20495;-72
2023/09/13 08:30:23;;;;;;;0.70;0.70;;;;;;;;;;5071036;28;20083;-72
2023/09/13 08:32:49;;;;;;;0.30;0.30;;;;;;;;;;5070257;28;20495;-72
2023/09/13 08:35:15;;;;;;;0.22;0.22;;;;;;;;;;5070884;28;20029;-73
2023/09/13 08:37:41;;;;;;;0.25;0.25;;;;;;;;;;5052856;28;20038;-73
2023/09/13 08:40:06;;;;;;;0.30;0.30;;;;;;;;;;5041696;28;20032;-72
2023/09/13 08:42:33;;;;;;;0.25;0.25;;;;;;;;;;5059446;28;20029;-72
2023/09/13 08:44:59;;;;;;;0.30;0.30;;;;;;;;;;5066611;28;20123;-75
2023/09/13 08:47:29;;;;;;;0.43;0.43;;;;;;;;;;5066444;28;20032;-75
2023/09/13 08:49:57;;;;;;;1.10;1.00;;;;;;;;;;5036069;28;20403;-75
2023/09/13 08:52:24;;;;;;;2.97;2.83;;;;;;;;;;5068626;28;20404;-73
2023/09/13 08:54:50;;;;;;;0.30;0.30;;;;;;;;;;5070548;28;20037;-73
2023/09/13 08:57:16;;;;;;;0.40;0.40;;;;;;;;;;5052586;28;20476;-73
2023/09/13 08:59:42;;;;;;;0.35;0.35;;;;;;;;;;5069122;28;20078;-74
2023/09/13 09:02:13;;;;;;;0.30;0.30;;;;;;;;;;5070134;28;20024;-75
2023/09/13 09:04:39;;;;;;;0.38;0.38;;;;;;;;;;5036260;28;20381;-74
2023/09/13 09:07:06;;;;;;;0.40;0.40;;;;;;;;;;5070411;28;20063;-74
2023/09/13 09:09:32;;;;;;;0.40;0.40;;;;;;;;;;5069095;28;20037;-74
2023/09/13 09:12:00;;;;;;;2.95;0.95;;;;;;;;;;5070239;28;20043;-73
2023/09/13 09:14:30;;;;;;;0.30;0.30;;;;;;;;;;5052313;28;20055;-74
2023/09/13 09:16:57;;;;;;;4.03;1.80;;;;;;;;;;5068510;28;20099;-74
2023/09/13 09:19:23;;;;;;;1.40;0.93;;;;;;;;;;5052603;28;20064;-74
2023/09/13 09:21:48;;;;;;;0.50;0.50;;;;;;;;;;5069945;28;20709;-74
2023/09/13 09:24:15;;;;;;;0.40;0.40;;;;;;;;;;5068653;28;20416;-75
2023/09/13 09:26:41;;;;;;;0.30;0.30;;;;;;;;;;5055952;28;20078;-74
2023/09/13 09:29:14;;;;;;;0.82;0.73;;;;;;;;;;5065447;28;20036;-73
2023/09/13 09:31:40;;;;;;;0.35;0.35;;;;;;;;;;5050884;28;20044;-78
2023/09/13 09:34:06;;;;;;;0.90;0.77;;;;;;;;;;5069546;28;20052;-74
2023/09/13 09:36:38;;;;;;;0.60;0.60;;;;;;;;;;5068420;28;20522;-76
2023/09/13 09:39:05;;;;;;;0.80;0.80;;;;;;;;;;5062370;28;20066;-75
2023/09/13 09:41:34;;;;;;;1.20;1.08;;;;;;;;;;5066163;28;20995;-74
2023/09/13 09:44:00;;;;;;;0.88;0.82;;;;;;;;;;5064920;28;20041;-75
2023/09/13 09:46:26;;;;;;;7.60;0.93;;;;;;;;;;5065014;28;20384;-74
2023/09/13 09:48:52;;;;;;;0.30;0.30;;;;;;;;;;5058635;28;20401;-75
2023/09/13 09:51:19;;;;;;;0.98;0.73;;;;;;;;;;5049027;28;20047;-77
2023/09/13 09:53:45;;;;;;;0.30;0.30;;;;;;;;;;5048795;28;20036;-76
2023/09/13 09:56:11;;;;;;;1.65;1.05;;;;;;;;;;5066678;28;20078;-76
2023/09/13 09:58:37;;;;;;;0.40;0.40;;;;;;;;;;5067380;28;20059;-75
2023/09/13 10:01:03;;;;;;;0.20;0.20;;;;;;;;;;5067184;28;20028;-74
2023/09/13 10:03:32;;;;;;;0.30;0.30;;;;;;;;;;5060929;28;20305;-75
2023/09/13 10:06:03;;;;;;;1.27;0.50;;;;;;;;;;5041878;28;20036;-75
2023/09/13 10:08:40;;;;;;;2.03;1.13;;;;;;;;;;5066670;28;20475;-76
2023/09/13 10:11:09;;;;;;;1.15;0.82;;;;;;;;;;5042989;28;20031;-75
2023/09/13 10:13:36;;;;;;;0.50;0.50;;;;;;;;;;5067019;28;20123;-74
2023/09/13 10:16:02;;;;;;;2.15;1.45;;;;;;;;;;5067168;28;20040;-76
2023/09/13 10:18:30;;;;;;;0.52;0.52;;;;;;;;;;5067013;28;20106;-76
2023/09/13 10:20:57;;;;;;;0.40;0.40;;;;;;;;;;5067544;28;20025;-76
2023/09/13 10:23:29;;;;;;;0.30;0.30;;;;;;;;;;5067610;28;20047;-76
2023/09/13 10:25:59;;;;;;;1.80;1.50;;;;;;;;;;5067512;28;20076;-77
2023/09/13 10:28:26;;;;;;;0.30;0.30;;;;;;;;;;5065055;28;20044;-76
2023/09/13 10:30:53;;;;;;;0.40;0.40;;;;;;;;;;5065243;28;20090;-75
2023/09/13 10:33:21;;;;;;;0.70;0.60;;;;;;;;;;5065502;28;20131;-74
2023/09/13 10:35:54;;;;;;;0.28;0.28;;;;;;;;;;5048931;28;20032;-75
2023/09/13 10:38:26;;;;;;;0.50;0.45;;;;;;;;;;5031665;28;20040;-74
2023/09/13 10:41:05;;;;;;;3.70;0.85;;;;;;;;;;5063720;28;20438;-77
2023/09/13 10:43:32;;;;;;;0.30;0.30;;;;;;;;;;5067125;28;20044;-78
2023/09/13 10:45:58;;;;;;;1.20;1.10;;;;;;;;;;5067002;28;20043;-76
2023/09/13 10:48:25;;;;;;;4.20;4.00;;;;;;;;;;5066541;28;20032;-78
2023/09/13 10:50:52;;;;;;;0.30;0.30;;;;;;;;;;5063072;28;20028;-77
2023/09/13 10:53:18;;;;;;;0.32;0.32;;;;;;;;;;5062957;28;20525;-77
2023/09/13 10:55:44;;;;;;;0.30;0.30;;;;;;;;;;5047965;28;20037;-76
2023/09/13 10:58:10;;;;;;;0.40;0.40;;;;;;;;;;5048929;28;20040;-78
2023/09/13 11:00:36;;;;;;;0.60;0.60;;;;;;;;;;5065383;28;20041;-76
2023/09/13 11:03:04;;;;;;;0.50;0.50;;;;;;;;;;5065148;28;20043;-78
2023/09/13 11:05:30;;;;;;;0.35;0.35;;;;;;;;;;5066286;28;20047;-78
2023/09/13 11:07:56;;;;;;;1.08;0.55;;;;;;;;;;5065884;28;20036;-77
2023/09/13 11:10:22;;;;;;;1.15;0.98;;;;;;;;;;5060712;28;20412;-75
2023/09/13 11:12:51;;;;;;;0.70;0.70;;;;;;;;;;5063450;28;20020;-73
2023/09/13 11:15:16;;;;;;;;;;;;;;;;;;5051392;28;20464;-78
2023/09/13 11:17:43;;;;;;;0.80;0.73;;;;;;;;;;5068398;28;20355;-79
2023/09/13 11:20:22;;;;;;;1.23;1.00;;;;;;;;;;5066950;28;20030;-78
2023/09/13 11:23:10;;;;;;;2.20;2.10;;;;;;;;;;5067445;28;20041;-75
2023/09/13 11:25:42;;;;;;;0.40;0.40;;;;;;;;;;5083560;28;20033;-76
2023/09/13 11:28:26;;;;;;;1.70;1.50;;;;;;;;;;5068464;28;20049;-74
2023/09/13 11:30:55;;;;;;;0.30;0.30;;;;;;;;;;5068273;28;20361;-76
2023/09/13 11:33:22;;;;;;;0.60;0.60;;;;;;;;;;5067868;28;20032;-76
2023/09/13 11:35:49;;;;;;;0.93;0.77;;;;;;;;;;5067946;28;20548;-77
2023/09/13 11:38:16;;;;;;;0.30;0.30;;;;;;;;;;5068093;28;20036;-77
2023/09/13 11:40:49;;;;;;;0.40;0.40;;;;;;;;;;5067744;28;20541;-75
2023/09/13 11:43:25;;;;;;;0.50;0.50;;;;;;;;;;5066301;28;20442;-75
2023/09/13 11:45:54;;;;;;;0.70;0.68;;;;;;;;;;5047817;28;20115;-75
2023/09/13 11:48:28;;;;;;;1.38;1.27;;;;;;;;;;5058519;28;20040;-75
2023/09/13 11:50:55;;;;;;;3.78;2.25;;;;;;;;;;5050481;28;20393;-75
2023/09/13 11:53:25;;;;;;;0.47;0.47;;;;;;;;;;5071935;28;20090;-75
2023/09/13 11:55:54;;;;;;;0.40;0.40;;;;;;;;;;5071553;28;20071;-77
2023/09/13 11:58:29;;;;;;;0.65;0.65;;;;;;;;;;5071378;28;20029;-76
2023/09/13 12:00:56;;;;;;;1.75;1.23;;;;;;;;;;5068933;28;20037;-75
2023/09/13 12:03:22;;;;;;;1.00;0.75;;;;;;;;;;5071547;28;20036;-75
2023/09/13 12:05:49;;;;;;;0.57;0.50;;;;;;;;;;5071493;28;20451;-78
2023/09/13 12:08:24;;;;;;;1.30;1.00;;;;;;;;;;5060608;28;20052;-75
2023/09/13 12:10:50;;;;;;;2.42;1.58;;;;;;;;;;5060865;28;20484;-74
2023/09/13 12:13:17;;;;;;;5.10;2.15;;;;;;;;;;5057937;28;20044;-76
2023/09/13 12:15:59;;;;;;;1.33;0.70;;;;;;;;;;5048772;28;20025;-75
2023/09/13 12:18:25;;;;;;;1.83;1.52;;;;;;;;;;5066145;28;20419;-76
2023/09/13 12:20:51;;;;;;;0.40;0.40;;;;;;;;;;5059291;28;20029;-75
2023/09/13 12:23:17;;;;;;;0.88;0.75;;;;;;;;;;5061124;28;20131;-76
2023/09/13 12:25:43;;;;;;;1.83;1.27;;;;;;;;;;5069138;28;20078;-75
2023/09/13 12:28:09;;;;;;;0.43;0.43;;;;;;;;;;5068738;28;20025;-75
2023/09/13 12:30:35;;;;;;;1.33;0.95;;;;;;;;;;5069946;28;20067;-75
2023/09/13 12:33:01;;;;;;;1.13;0.70;;;;;;;;;;5069602;28;20028;-77
2023/09/13 12:35:27;;;;;;;0.88;0.70;;;;;;;;;;5070416;28;20028;-79
2023/09/13 12:37:58;;;;;;;0.65;0.65;;;;;;;;;;5053067;28;20052;-77
2023/09/13 12:40:26;;;;;;;3.25;1.02;;;;;;;;;;5070071;28;20033;-75
2023/09/13 12:42:52;;;;;;;1.53;0.97;;;;;;;;;;5069301;28;20040;-75
2023/09/13 12:45:18;;;;;;;4.22;1.33;;;;;;;;;;5069530;28;20036;-75
2023/09/13 12:47:43;;;;;;;1.65;1.20;;;;;;;;;;5070286;28;20428;-75
2023/09/13 12:50:10;;;;;;;1.33;1.00;;;;;;;;;;5069803;28;20075;-74
2023/09/13 12:52:36;;;;;;;0.32;0.32;;;;;;;;;;5070163;28;20206;-75
2023/09/13 12:55:03;;;;;;;1.30;1.15;;;;;;;;;;5067582;28;20426;-75
2023/09/13 12:57:30;;;;;;;0.20;0.20;;;;;;;;;;5050166;28;20774;-74
2023/09/13 12:59:56;;;;;;;0.75;0.75;;;;;;;;;;5049113;28;20476;-76
2023/09/13 13:02:26;;;;;;;1.30;0.82;;;;;;;;;;5048375;28;20988;-76
2023/09/13 13:04:51;;;;;;;;;;;;;;;;;;5067042;28;20032;-75
2023/09/13 13:07:21;;;;;;;1.55;1.00;;;;;;;;;;5048164;28;19973;-75
2023/09/13 13:10:01;;;;;;;0.40;0.40;;;;;;;;;;5066647;28;20033;-78
2023/09/13 13:12:27;;;;;;;0.30;0.30;;;;;;;;;;5067880;28;20051;-77
2023/09/13 13:14:53;;;;;;;1.10;1.00;;;;;;;;;;5067889;28;20476;-76
2023/09/13 13:17:19;;;;;;;2.15;1.33;;;;;;;;;;5068179;28;20036;-75
2023/09/13 13:19:45;;;;;;;1.05;0.95;;;;;;;;;;5068313;28;20086;-75
2023/09/13 13:22:17;;;;;;;0.75;0.73;;;;;;;;;;5067144;28;20032;-74
2023/09/13 13:24:46;;;;;;;0.30;0.30;;;;;;;;;;5068656;28;20060;-73
2023/09/13 13:27:12;;;;;;;0.90;0.88;;;;;;;;;;5068723;28;20039;-73
2023/09/13 13:29:38;;;;;;;9.45;2.50;;;;;;;;;;5068474;28;20024;-73
2023/09/13 13:32:04;;;;;;;0.85;0.80;;;;;;;;;;5068488;28;20459;-74
2023/09/13 13:34:30;;;;;;;1.05;0.85;;;;;;;;;;5069457;28;20056;-73
2023/09/13 13:36:56;;;;;;;2.60;1.65;;;;;;;;;;5068236;28;20052;-73
2023/09/13 13:39:21;;;;;;;0.50;0.50;;;;;;;;;;5068172;28;20488;-73
2023/09/13 13:41:47;;;;;;;0.77;0.77;;;;;;;;;;5067898;28;20032;-73
2023/09/13 13:44:15;;;;;;;0.45;0.45;;;;;;;;;;5061460;28;20040;-74
2023/09/13 13:46:41;;;;;;;3.40;1.20;;;;;;;;;;5054804;28;20028;-73
2023/09/13 13:49:10;;;;;;;1.42;1.20;;;;;;;;;;5067943;28;20295;-73
2023/09/13 13:51:37;;;;;;;0.95;0.82;;;;;;;;;;5068212;28;20112;-73
2023/09/13 13:54:04;;;;;;;1.33;1.23;;;;;;;;;;5067444;28;20044;-73
2023/09/13 13:56:30;;;;;;;3.03;1.52;;;;;;;;;;5067861;28;20499;-74
2023/09/13 13:58:56;;;;;;;0.77;0.77;;;;;;;;;;5067769;28;20043;-73
2023/09/13 14:01:22;;;;;;;0.50;0.50;;;;;;;;;;5068231;28;20040;-72
2023/09/13 14:03:47;;;;;;;0.30;0.30;;;;;;;;;;5049735;28;20063;-74
2023/09/13 14:06:13;;;;;;;2.00;1.13;;;;;;;;;;5065900;28;20032;-75
2023/09/13 14:08:39;;;;;;;1.40;0.90;;;;;;;;;;5049672;28;20078;-77
2023/09/13 14:11:05;;;;;;;0.73;0.70;;;;;;;;;;5059268;28;20076;-76
2023/09/13 14:13:33;;;;;;;1.25;0.80;;;;;;;;;;5049990;28;20099;-76
2023/09/13 14:15:59;;;;;;;1.40;1.15;;;;;;;;;;5055263;28;20027;-77
2023/09/13 14:18:24;;;;;;;1.08;0.95;;;;;;;;;;5046930;28;20037;-74
2023/09/13 14:20:50;;;;;;;1.60;0.65;;;;;;;;;;5057973;28;20032;-76
2023/09/13 14:23:16;;;;;;;2.20;1.27;;;;;;;;;;5066251;28;20163;-77
2023/09/13 14:25:42;;;;;;;0.50;0.50;;;;;;;;;;5059163;28;20032;-76
2023/09/13 14:28:08;;;;;;;2.85;1.92;;;;;;;;;;5069160;28;20082;-75
2023/09/13 14:30:34;;;;;;;3.63;1.77;;;;;;;;;;5064208;28;20021;-75
2023/09/13 14:33:03;;;;;;;1.83;1.00;;;;;;;;;;5068057;28;20030;-76
2023/09/13 14:35:28;;;;;;;1.35;0.90;;;;;;;;;;5066263;28;20106;-78
2023/09/13 14:37:54;;;;;;;1.98;1.10;;;;;;;;;;5070714;28;20531;-77
2023/09/13 14:40:20;;;;;;;1.48;0.85;;;;;;;;;;5069319;28;20035;-76
2023/09/13 14:42:45;;;;;;;3.58;1.33;;;;;;;;;;5069303;28;20082;-76